createdAt,value
2023-03-04T00:00:43.135Z,90.46
2023-03-04T00:03:15.320Z,89.30
2023-03-04T00:05:42.401Z,88.87
2023-03-04T00:08:09.011Z,88.85
2023-03-04T00:10:35.474Z,88.81
2023-03-04T00:13:02.596Z,89.29
2023-03-04T00:15:29.111Z,89.97
2023-03-04T00:17:55.990Z,90.16
2023-03-04T00:20:22.551Z,90.30
2023-03-04T00:22:48.989Z,90.07
2023-03-04T00:25:15.791Z,89.38
2023-03-04T00:27:42.215Z,90.01
2023-03-04T00:30:10.038Z,89.92
2023-03-04T00:32:36.696Z,89.29
2023-03-04T00:35:04.292Z,89.44
2023-03-04T00:37:31.068Z,89.35
2023-03-04T00:39:57.476Z,88.92
2023-03-04T00:42:24.090Z,88.96
2023-03-04T00:44:51.636Z,89.32
2023-03-04T00:47:18.060Z,89.13
2023-03-04T00:49:44.518Z,89.23
2023-03-04T00:52:11.100Z,89.27
2023-03-04T00:54:37.550Z,89.08
2023-03-04T00:57:03.949Z,88.95
2023-03-04T00:59:30.474Z,89.58
2023-03-04T01:01:57.189Z,89.29
2023-03-04T01:04:24.023Z,88.83
2023-03-04T01:06:50.562Z,89.42
2023-03-04T01:09:17.470Z,89.54
2023-03-04T01:11:43.956Z,88.87
2023-03-04T01:14:10.474Z,88.67
2023-03-04T01:16:37.681Z,89.34
2023-03-04T01:19:04.103Z,89.17
2023-03-04T01:21:30.609Z,88.50
2023-03-04T01:23:56.965Z,89.38
2023-03-04T01:26:23.409Z,89.05
2023-03-04T01:28:49.863Z,88.97
2023-03-04T01:31:16.305Z,88.86
2023-03-04T01:33:42.873Z,89.43
2023-03-04T01:36:09.565Z,89.42
2023-03-04T01:38:36.073Z,88.76
2023-03-04T01:41:03.028Z,89.35
2023-03-04T01:43:30.838Z,88.17
2023-03-04T01:45:58.370Z,88.41
2023-03-04T01:48:28.955Z,88.59
2023-03-04T01:50:56.067Z,89.15
2023-03-04T01:53:25.704Z,88.17
2023-03-04T01:55:56.211Z,88.14
2023-03-04T01:58:26.812Z,88.63
2023-03-04T02:00:53.241Z,88.38
2023-03-04T02:03:20.558Z,89.13
2023-03-04T02:05:50.668Z,89.70
2023-03-04T02:08:19.737Z,89.77
2023-03-04T02:10:47.493Z,90.13
2023-03-04T02:13:15.507Z,89.84
2023-03-04T02:15:46.367Z,90.04
2023-03-04T02:18:22.017Z,89.80
2023-03-04T02:20:58.166Z,90.11
2023-03-04T02:24:17.707Z,89.84
2023-03-04T02:26:47.107Z,89.07
2023-03-04T02:29:15.848Z,89.19
2023-03-04T02:31:48.747Z,88.95
2023-03-04T02:34:17.053Z,89.72
2023-03-04T02:36:45.550Z,89.90
2023-03-04T02:39:23.118Z,89.81
2023-03-04T02:41:52.181Z,89.76
2023-03-04T02:44:21.317Z,89.93
2023-03-04T02:46:48.081Z,89.48
2023-03-04T02:49:14.956Z,89.38
2023-03-04T02:51:41.396Z,89.51
2023-03-04T02:54:23.356Z,89.87
2023-03-04T02:56:54.898Z,89.91
2023-03-04T02:59:22.636Z,90.12
2023-03-04T03:01:49.424Z,89.83
2023-03-04T03:04:15.946Z,90.13
2023-03-04T03:06:42.442Z,90.82
2023-03-04T03:09:09.138Z,91.08
2023-03-04T03:11:35.709Z,90.11
2023-03-04T03:14:02.469Z,90.48
2023-03-04T03:16:28.993Z,90.36
2023-03-04T03:18:55.529Z,90.59
2023-03-04T03:21:21.977Z,89.91
2023-03-04T03:23:48.871Z,88.63
2023-03-04T03:26:15.895Z,89.20
2023-03-04T03:28:42.502Z,89.47
2023-03-04T03:31:09.175Z,89.75
2023-03-04T03:33:36.032Z,90.17
2023-03-04T03:36:02.696Z,90.02
2023-03-04T03:38:29.306Z,89.87
2023-03-04T03:40:55.767Z,89.30
2023-03-04T03:43:22.224Z,89.61
2023-03-04T03:45:48.769Z,90.51
2023-03-04T03:48:15.751Z,89.88
2023-03-04T03:50:42.190Z,89.49
2023-03-04T03:53:08.696Z,89.24
2023-03-04T03:55:35.326Z,90.09
2023-03-04T03:58:01.841Z,90.31
2023-03-04T04:00:28.310Z,89.83
2023-03-04T04:02:56.549Z,89.34
2023-03-04T04:05:23.033Z,90.17
2023-03-04T04:07:49.518Z,90.75
2023-03-04T04:10:16.137Z,90.85
2023-03-04T04:12:43.931Z,89.28
2023-03-04T04:15:12.287Z,89.48
2023-03-04T04:17:39.010Z,90.82
2023-03-04T04:20:07.678Z,90.53
2023-03-04T04:22:34.372Z,90.21
2023-03-04T04:25:00.837Z,89.78
2023-03-04T04:27:27.380Z,90.56
2023-03-04T04:29:53.763Z,89.56
2023-03-04T04:32:20.193Z,90.90
2023-03-04T04:34:46.666Z,90.65
2023-03-04T04:37:13.053Z,89.87
2023-03-04T04:39:39.442Z,89.59
2023-03-04T04:42:05.981Z,90.26
2023-03-04T04:44:32.500Z,91.15
2023-03-04T04:46:58.910Z,89.96
2023-03-04T04:49:25.401Z,90.60
2023-03-04T04:51:51.844Z,89.73
2023-03-04T04:54:18.236Z,89.94
2023-03-04T04:56:44.714Z,90.90
2023-03-04T04:59:11.167Z,90.15
2023-03-04T05:01:37.575Z,90.38
2023-03-04T05:04:04.357Z,90.39
2023-03-04T05:06:30.959Z,90.05
2023-03-04T05:08:57.348Z,89.90
2023-03-04T05:11:24.137Z,89.72
2023-03-04T05:13:50.866Z,89.42
2023-03-04T05:16:18.007Z,89.60
2023-03-04T05:18:44.672Z,89.63
2023-03-04T05:21:11.340Z,90.20
2023-03-04T05:23:40.165Z,89.94
2023-03-04T05:26:07.787Z,90.11
2023-03-04T05:28:34.774Z,90.13
2023-03-04T05:31:01.204Z,90.71
2023-03-04T05:33:27.740Z,90.24
2023-03-04T05:35:55.076Z,89.90
2023-03-04T05:38:21.838Z,89.73
2023-03-04T05:40:49.274Z,89.46
2023-03-04T05:43:16.159Z,90.02
2023-03-04T05:45:42.667Z,89.57
2023-03-04T05:48:09.475Z,89.54
2023-03-04T05:50:35.968Z,90.62
2023-03-04T05:53:02.522Z,89.58
2023-03-04T05:55:30.045Z,89.47
2023-03-04T05:57:57.331Z,90.04
2023-03-04T06:00:24.558Z,89.78
2023-03-04T06:02:51.024Z,90.09
2023-03-04T06:05:17.803Z,90.18
2023-03-04T06:07:44.857Z,89.30
2023-03-04T06:10:13.783Z,89.22
2023-03-04T06:12:40.704Z,90.42
2023-03-04T06:15:09.981Z,90.11
2023-03-04T06:17:39.116Z,89.89
2023-03-04T06:20:08.891Z,89.93
2023-03-04T06:22:35.529Z,90.04
2023-03-04T06:25:02.225Z,90.34
2023-03-04T06:27:28.976Z,89.58
2023-03-04T06:29:56.372Z,89.14
2023-03-04T06:32:23.145Z,89.85
2023-03-04T06:34:49.722Z,89.71
2023-03-04T06:37:16.322Z,89.15
2023-03-04T06:39:42.734Z,89.84
2023-03-04T06:42:09.528Z,89.50
2023-03-04T06:44:35.960Z,89.80
2023-03-04T06:47:02.655Z,90.16
2023-03-04T06:49:29.139Z,89.06
2023-03-04T06:51:55.886Z,89.42
2023-03-04T06:54:22.294Z,88.80
2023-03-04T06:56:48.703Z,89.47
2023-03-04T06:59:15.607Z,88.97
2023-03-04T07:01:42.085Z,88.89
2023-03-04T07:04:08.732Z,88.63
2023-03-04T07:06:35.211Z,89.25
2023-03-04T07:09:01.653Z,88.41
2023-03-04T07:11:28.251Z,88.98
2023-03-04T07:13:54.738Z,88.86
2023-03-04T07:16:22.675Z,87.54
2023-03-04T07:18:49.945Z,88.78
2023-03-04T07:21:18.016Z,88.34
2023-03-04T07:23:44.780Z,88.65
2023-03-04T07:26:11.376Z,89.28
2023-03-04T07:28:38.073Z,88.21
2023-03-04T07:31:11.228Z,89.66
2023-03-04T07:33:37.759Z,88.07
2023-03-04T07:36:04.531Z,88.56
2023-03-04T07:38:31.100Z,88.37
2023-03-04T07:40:58.319Z,89.30
2023-03-04T07:43:24.941Z,89.09
2023-03-04T07:45:51.524Z,89.00
2023-03-04T07:48:17.972Z,88.10
2023-03-04T07:50:44.494Z,87.29
2023-03-04T07:53:10.881Z,87.35
2023-03-04T07:55:38.657Z,87.48
2023-03-04T07:58:05.482Z,87.73
2023-03-04T08:00:32.197Z,85.44
2023-03-04T08:02:58.751Z,86.25
2023-03-04T08:05:25.214Z,86.29
2023-03-04T08:07:51.753Z,84.98
2023-03-04T08:10:18.191Z,85.40
2023-03-04T08:12:44.602Z,85.35
2023-03-04T08:15:11.617Z,85.97
2023-03-04T08:17:38.131Z,85.45
2023-03-04T08:20:04.974Z,85.83
2023-03-04T08:22:32.060Z,85.79
2023-03-04T08:24:58.526Z,86.47
2023-03-04T08:27:25.146Z,87.03
2023-03-04T08:29:51.604Z,86.52
2023-03-04T08:32:18.479Z,84.87
2023-03-04T08:34:45.395Z,84.63
2023-03-04T08:37:11.877Z,85.37
2023-03-04T08:39:38.325Z,84.04
2023-03-04T08:42:05.106Z,83.68
2023-03-04T08:44:31.977Z,83.34
2023-03-04T08:47:00.106Z,83.11
2023-03-04T08:49:26.863Z,83.31
2023-03-04T08:51:53.306Z,82.94
2023-03-04T08:54:20.604Z,83.39
2023-03-04T08:56:47.154Z,83.91
2023-03-04T08:59:14.004Z,83.47
2023-03-04T09:01:40.490Z,82.82
2023-03-04T09:04:07.173Z,82.14
2023-03-04T09:06:33.638Z,81.95
2023-03-04T09:09:00.135Z,81.38
2023-03-04T09:11:26.644Z,81.85
2023-03-04T09:13:54.494Z,81.14
2023-03-04T09:16:21.735Z,81.37
2023-03-04T09:18:48.341Z,81.28
2023-03-04T09:21:15.013Z,81.80
2023-03-04T09:23:41.543Z,81.37
2023-03-04T09:26:16.663Z,80.87
2023-03-04T09:28:43.458Z,81.08
2023-03-04T09:31:14.470Z,81.57
2023-03-04T09:33:42.979Z,80.74
2023-03-04T09:36:11.262Z,80.21
2023-03-04T09:38:38.820Z,79.90
2023-03-04T09:41:10.945Z,79.78
2023-03-04T09:43:39.925Z,79.39
2023-03-04T09:46:13.189Z,79.48
2023-03-04T09:48:46.556Z,79.19
2023-03-04T09:51:20.517Z,78.37
2023-03-04T09:54:11.089Z,78.24
2023-03-04T09:56:40.406Z,78.67
2023-03-04T09:59:18.813Z,79.35
2023-03-04T10:01:50.621Z,78.42
2023-03-04T10:04:34.962Z,77.65
2023-03-04T10:07:03.127Z,78.43
2023-03-04T10:09:37.278Z,77.80
2023-03-04T10:12:07.817Z,78.50
2023-03-04T10:14:43.773Z,78.44
2023-03-04T10:17:17.119Z,78.32
2023-03-04T10:19:49.842Z,78.06
2023-03-04T10:22:36.313Z,77.77
2023-03-04T10:25:30.183Z,77.70
2023-03-04T10:28:04.715Z,77.50
2023-03-04T10:30:37.921Z,76.69
2023-03-04T10:33:20.564Z,75.38
2023-03-04T10:35:58.901Z,73.33
2023-03-04T10:38:25.560Z,72.57
2023-03-04T10:40:51.960Z,70.58
2023-03-04T10:43:20.744Z,69.46
2023-03-04T10:45:48.890Z,70.24
2023-03-04T10:48:31.363Z,69.62
2023-03-04T10:51:19.868Z,68.82
2023-03-04T10:53:48.797Z,68.25
2023-03-04T10:56:34.073Z,69.44
2023-03-04T10:59:28.772Z,71.36
2023-03-04T11:01:55.266Z,71.80
2023-03-04T11:04:27.007Z,71.59
2023-03-04T11:06:54.224Z,71.45
2023-03-04T11:09:25.432Z,72.32
2023-03-04T11:11:54.602Z,71.78
2023-03-04T11:14:38.149Z,70.79
2023-03-04T11:17:17.865Z,70.06
2023-03-04T11:19:48.376Z,69.45
2023-03-04T11:22:18.193Z,69.58
2023-03-04T11:24:49.720Z,70.30
2023-03-04T11:27:23.992Z,71.10
2023-03-04T11:30:13.655Z,70.80
2023-03-04T11:32:46.149Z,70.84
2023-03-04T11:35:18.810Z,69.95
2023-03-04T11:38:06.027Z,69.50
2023-03-04T11:40:40.973Z,70.14
2023-03-04T11:43:19.363Z,69.51
2023-03-04T11:46:00.859Z,70.25
2023-03-04T11:49:07.232Z,71.36
2023-03-04T11:51:58.024Z,72.23
2023-03-04T11:54:35.208Z,70.84
2023-03-04T11:57:25.331Z,72.09
2023-03-04T12:00:04.615Z,72.48
2023-03-04T12:03:01.936Z,71.67
2023-03-04T12:05:34.123Z,72.37
2023-03-04T12:08:38.245Z,70.87
2023-03-04T12:11:13.507Z,72.16
2023-03-04T12:13:49.038Z,72.84
2023-03-04T12:16:30.270Z,73.49
2023-03-04T12:19:12.090Z,74.77
2023-03-04T12:21:59.013Z,74.17
2023-03-04T12:24:42.985Z,73.50
2023-03-04T12:27:27.733Z,73.88
2023-03-04T12:30:05.672Z,73.76
2023-03-04T12:32:37.378Z,73.73
2023-03-04T12:35:42.809Z,72.81
2023-03-04T12:38:46.909Z,72.09
2023-03-04T12:41:41.416Z,71.78
2023-03-04T12:44:13.644Z,72.34
2023-03-04T12:47:14.445Z,72.84
2023-03-04T12:49:43.902Z,72.47
2023-03-04T12:52:32.024Z,72.90
2023-03-04T12:55:10.340Z,72.78
2023-03-04T12:57:38.269Z,73.22
2023-03-04T13:00:32.984Z,73.80
2023-03-04T13:03:35.512Z,73.68
2023-03-04T13:06:15.386Z,73.98
2023-03-04T13:09:11.779Z,74.29
2023-03-04T13:12:03.946Z,74.37
2023-03-04T13:14:32.061Z,74.18
2023-03-04T13:17:01.812Z,73.62
2023-03-04T13:19:50.923Z,73.50
2023-03-04T13:22:38.984Z,73.99
2023-03-04T13:25:44.274Z,74.39
2023-03-04T13:28:13.484Z,73.30
2023-03-04T13:31:21.632Z,73.79
2023-03-04T13:33:53.199Z,74.58
2023-03-04T13:36:31.386Z,73.46
2023-03-04T13:39:00.416Z,73.43
2023-03-04T13:41:47.887Z,73.94
2023-03-04T13:44:34.691Z,74.40
2023-03-04T13:47:29.529Z,74.27
2023-03-04T13:50:26.914Z,73.45
2023-03-04T13:52:53.468Z,73.72
2023-03-04T13:55:32.181Z,73.96
2023-03-04T13:57:58.802Z,72.86
2023-03-04T14:00:26.974Z,73.15
2023-03-04T14:02:53.481Z,73.79
2023-03-04T14:05:19.935Z,73.66
2023-03-04T14:07:46.714Z,73.00
2023-03-04T14:10:13.802Z,73.52
2023-03-04T14:12:48.782Z,73.64
2023-03-04T14:15:25.213Z,72.70
2023-03-04T14:17:54.330Z,71.86
2023-03-04T14:20:23.821Z,72.63
2023-03-04T14:22:50.609Z,72.37
2023-03-04T14:25:36.814Z,72.36
2023-03-04T14:28:03.405Z,72.42
2023-03-04T14:30:42.344Z,73.91
2023-03-04T14:33:15.953Z,73.61
2023-03-04T14:35:48.525Z,72.45
2023-03-04T14:38:23.942Z,73.20
2023-03-04T14:40:58.999Z,73.99
2023-03-04T14:43:27.199Z,73.47
2023-03-04T14:45:58.038Z,73.74
2023-03-04T14:48:30.367Z,72.89
2023-03-04T14:50:57.744Z,72.90
2023-03-04T14:53:26.884Z,72.31
2023-03-04T14:56:04.608Z,73.22
2023-03-04T14:58:39.042Z,73.52
2023-03-04T15:01:18.492Z,73.93
2023-03-04T15:03:57.875Z,74.04
2023-03-04T15:06:27.120Z,74.88
2023-03-04T15:09:00.484Z,75.14
2023-03-04T15:11:31.617Z,75.06
2023-03-04T15:13:59.881Z,75.48
2023-03-04T15:16:53.395Z,76.49
2023-03-04T15:19:25.695Z,77.72
2023-03-04T15:22:03.802Z,78.84
2023-03-04T15:24:30.181Z,78.44
2023-03-04T15:26:56.915Z,78.96
2023-03-04T15:29:23.524Z,79.75
2023-03-04T15:31:51.673Z,79.34
2023-03-04T15:34:20.481Z,79.35
2023-03-04T15:36:50.394Z,79.82
2023-03-04T15:39:19.688Z,78.98
2023-03-04T15:41:46.891Z,80.43
2023-03-04T15:44:14.769Z,80.34
2023-03-04T15:46:41.278Z,80.72
2023-03-04T15:49:07.732Z,80.61
2023-03-04T15:51:34.341Z,80.15
2023-03-04T15:54:00.895Z,80.31
2023-03-04T15:56:30.696Z,79.87
2023-03-04T15:59:04.768Z,80.12
2023-03-04T16:01:31.224Z,79.60
2023-03-04T16:03:57.605Z,79.76
2023-03-04T16:06:28.712Z,79.39
2023-03-04T16:08:55.222Z,79.41
2023-03-04T16:11:26.993Z,80.20
2023-03-04T16:13:53.542Z,80.09
2023-03-04T16:16:20.118Z,79.00
2023-03-04T16:18:46.871Z,79.61
2023-03-04T16:21:16.674Z,79.82
2023-03-04T16:23:46.278Z,80.21
2023-03-04T16:26:15.798Z,80.25
2023-03-04T16:28:42.853Z,80.02
2023-03-04T16:31:10.504Z,79.50
2023-03-04T16:33:37.156Z,80.17
2023-03-04T16:36:05.303Z,79.47
2023-03-04T16:38:34.499Z,79.92
2023-03-04T16:41:04.479Z,79.80
2023-03-04T16:43:30.961Z,79.62
2023-03-04T16:45:57.463Z,79.10
2023-03-04T16:48:23.939Z,79.26
2023-03-04T16:50:50.496Z,79.74
2023-03-04T16:53:39.633Z,79.16
2023-03-04T16:56:19.451Z,79.12
2023-03-04T16:58:47.007Z,79.57
2023-03-04T17:01:18.776Z,79.89
2023-03-04T17:03:45.864Z,80.41
2023-03-04T17:06:20.860Z,80.05
2023-03-04T17:08:47.405Z,79.73
2023-03-04T17:11:30.311Z,79.11
2023-03-04T17:13:56.781Z,79.46
2023-03-04T17:16:23.435Z,79.42
2023-03-04T17:18:50.343Z,80.00
2023-03-04T17:21:19.649Z,80.61
2023-03-04T17:23:46.257Z,80.93
2023-03-04T17:26:13.490Z,82.07
2023-03-04T17:28:39.833Z,81.96
2023-03-04T17:31:11.632Z,81.92
2023-03-04T17:33:38.800Z,82.68
2023-03-04T17:36:05.602Z,81.89
2023-03-04T17:38:32.164Z,82.66
2023-03-04T17:41:07.307Z,83.16
2023-03-04T17:43:34.180Z,82.61
2023-03-04T17:46:08.788Z,83.07
2023-03-04T17:48:35.439Z,83.31
2023-03-04T17:51:02.595Z,83.54
2023-03-04T17:53:29.278Z,84.39
2023-03-04T17:56:04.424Z,85.16
2023-03-04T17:58:33.232Z,84.88
2023-03-04T18:01:14.808Z,84.78
2023-03-04T18:03:41.271Z,85.33
2023-03-04T18:06:07.968Z,85.97
2023-03-04T18:08:34.640Z,85.63
2023-03-04T18:11:01.100Z,86.00
2023-03-04T18:13:27.663Z,86.75
2023-03-04T18:15:55.250Z,87.42
2023-03-04T18:18:22.015Z,88.49
2023-03-04T18:20:48.671Z,88.83
2023-03-04T18:23:15.542Z,88.01
2023-03-04T18:25:42.571Z,89.58
2023-03-04T18:28:11.314Z,89.15
2023-03-04T18:30:38.032Z,89.15
2023-03-04T18:33:04.786Z,89.85
2023-03-04T18:35:31.490Z,89.24
2023-03-04T18:37:59.825Z,90.12
2023-03-04T18:40:26.242Z,90.65
2023-03-04T18:42:52.645Z,90.65
2023-03-04T18:45:21.428Z,91.50
2023-03-04T18:47:50.546Z,91.98
2023-03-04T18:50:18.489Z,91.82
2023-03-04T18:52:44.980Z,92.50
2023-03-04T18:55:13.178Z,91.63
2023-03-04T18:57:42.612Z,91.69
2023-03-04T19:00:12.868Z,92.12
2023-03-04T19:02:58.156Z,92.00
2023-03-04T19:05:27.767Z,91.34
2023-03-04T19:07:54.939Z,91.79
2023-03-04T19:10:21.897Z,92.30
2023-03-04T19:12:48.314Z,91.26
2023-03-04T19:15:15.352Z,91.60
2023-03-04T19:17:45.147Z,91.70
2023-03-04T19:20:13.223Z,91.66
2023-03-04T19:22:39.699Z,91.38
2023-03-04T19:25:06.764Z,91.77
2023-03-04T19:27:33.441Z,91.07
2023-03-04T19:29:59.964Z,91.79
2023-03-04T19:32:26.497Z,91.14
2023-03-04T19:34:53.477Z,91.18
2023-03-04T19:37:19.968Z,91.27
2023-03-04T19:39:48.932Z,91.71
2023-03-04T19:42:15.679Z,90.88
2023-03-04T19:44:44.806Z,90.61
2023-03-04T19:47:11.583Z,91.94
2023-03-04T19:49:38.069Z,91.19
2023-03-04T19:52:05.423Z,91.50
2023-03-04T19:54:31.914Z,91.65
2023-03-04T19:56:58.669Z,91.93
2023-03-04T19:59:25.261Z,91.98
2023-03-04T20:01:52.057Z,91.82
2023-03-04T20:04:20.936Z,92.66
2023-03-04T20:06:50.439Z,93.35
2023-03-04T20:09:18.325Z,93.05
2023-03-04T20:11:57.348Z,92.74
2023-03-04T20:14:26.444Z,93.05
2023-03-04T20:16:52.937Z,93.03
2023-03-04T20:19:19.384Z,93.04
2023-03-04T20:21:45.828Z,93.58
2023-03-04T20:24:12.952Z,92.65
2023-03-04T20:26:39.442Z,93.27
2023-03-04T20:29:06.316Z,93.34
2023-03-04T20:31:38.106Z,93.74
2023-03-04T20:34:05.366Z,93.26
2023-03-04T20:36:32.272Z,93.01
2023-03-04T20:39:04.199Z,93.38
2023-03-04T20:41:34.703Z,93.30
2023-03-04T20:44:01.713Z,92.98
2023-03-04T20:46:34.848Z,92.85
2023-03-04T20:49:02.779Z,92.51
2023-03-04T20:51:30.680Z,93.29
2023-03-04T20:53:57.797Z,93.65
2023-03-04T20:56:25.423Z,93.06
2023-03-04T20:58:54.003Z,92.22
2023-03-04T21:01:21.987Z,92.60
2023-03-04T21:03:49.811Z,92.55
2023-03-04T21:06:16.556Z,91.79
2023-03-04T21:08:44.294Z,92.10
2023-03-04T21:11:17.747Z,91.84
2023-03-04T21:13:44.804Z,91.69
2023-03-04T21:16:13.744Z,90.95
2023-03-04T21:18:41.714Z,90.63
2023-03-04T21:21:14.312Z,89.57
2023-03-04T21:23:41.295Z,89.47
2023-03-04T21:26:08.418Z,88.24
2023-03-04T21:28:34.857Z,88.64
2023-03-04T21:31:01.308Z,88.88
2023-03-04T21:33:36.254Z,88.58
2023-03-04T21:36:02.990Z,89.12
2023-03-04T21:38:29.521Z,88.58
2023-03-04T21:40:56.196Z,88.64
2023-03-04T21:43:23.698Z,88.24
2023-03-04T21:45:57.421Z,88.79
2023-03-04T21:48:25.059Z,88.23
2023-03-04T21:50:53.347Z,87.66
2023-03-04T21:53:23.401Z,87.82
2023-03-04T21:55:53.019Z,87.04
2023-03-04T21:58:20.266Z,86.28
2023-03-04T22:00:46.778Z,85.77
2023-03-04T22:03:13.451Z,85.58
2023-03-04T22:05:44.581Z,85.76
2023-03-04T22:08:12.591Z,84.21
2023-03-04T22:10:40.761Z,83.67
2023-03-04T22:13:12.915Z,84.82
2023-03-04T22:15:42.895Z,82.58
2023-03-04T22:18:12.600Z,82.98
2023-03-04T22:20:42.053Z,82.80
2023-03-04T22:23:09.273Z,82.91
2023-03-04T22:25:37.352Z,82.86
2023-03-04T22:28:04.247Z,82.84
2023-03-04T22:30:31.925Z,82.82
2023-03-04T22:32:58.473Z,83.01
2023-03-04T22:35:25.185Z,82.04
2023-03-04T22:37:52.094Z,83.00
2023-03-04T22:40:18.687Z,82.08
2023-03-04T22:42:47.233Z,82.39
2023-03-04T22:45:15.964Z,82.09
2023-03-04T22:47:50.972Z,81.96
2023-03-04T22:50:19.288Z,82.31
2023-03-04T22:52:47.301Z,81.72
2023-03-04T22:55:19.519Z,83.51
2023-03-04T22:57:46.440Z,83.31
2023-03-04T23:00:22.644Z,83.30
2023-03-04T23:02:50.866Z,81.98
2023-03-04T23:05:22.082Z,82.90
2023-03-04T23:07:50.382Z,81.67
2023-03-04T23:10:22.621Z,82.76
2023-03-04T23:12:49.785Z,82.62
2023-03-04T23:15:18.409Z,82.26
2023-03-04T23:17:46.274Z,81.64
2023-03-04T23:20:15.537Z,82.10
2023-03-04T23:22:41.994Z,82.39
2023-03-04T23:25:08.652Z,81.88
2023-03-04T23:27:37.184Z,81.61
2023-03-04T23:30:06.021Z,81.11
2023-03-04T23:32:32.688Z,81.25
2023-03-04T23:35:02.504Z,82.50
2023-03-04T23:37:28.957Z,81.04
2023-03-04T23:39:55.457Z,81.02
2023-03-04T23:42:23.256Z,80.95
2023-03-04T23:44:49.766Z,81.13
2023-03-04T23:47:16.344Z,81.67
2023-03-04T23:49:42.904Z,80.66
2023-03-04T23:52:09.328Z,81.18
2023-03-04T23:54:35.961Z,82.05
2023-03-04T23:57:02.715Z,81.03
2023-03-04T23:59:29.840Z,80.29
